Accueil
METAR-TAF:

METAR-TAF

Aéroports :

Lyon, France

Aéroport de Lyon-Bron

latitude: 45-43N, longitude: 004-57E, altitude: 200 m

Observation

Le bulletin a été fait il y a 40 minutes, à 10:00 UTC
Vent 12 kt de nord, variant entre nord/nord-ouest et nord-est
Température 1°C
Humidité 64%
Pression 1009 hPa
Visibilité: 9000 m
Ciel couvert à une hauteur de 5200 ft

METAR: LFLY 221000Z AUTO 35012KT 330V040 9000 OVC052 01/M05 Q1009 NOSIG

Heure: 11:40 (10:40 UTC)

Prévision

Le bulletin a été fait il y a 5 heures et 40 minutes, à 05:00 UTC
Prévision valable du 22 à 06 UTC au 23 à 06 UTC
Vent 10 kt de nord
Visibilité: 8000 m
Nuages fragmentés à une hauteur de 5000 ft

TAF: LFLY 220500Z 2206/2306 35010KT 8000 BKN050

Observations et prévisions météorologiques de plus de 4000 aéroports (messages METAR et TAF).

Les stations disponibles sont représentées par des disques jaunes et rouges sur la carte.

Passer la souris dessus pour voir le nom de la station.

Cliquer dessus pour voir les observations et prévisions météorologiques.

Pour changer de carte: cliquez sur les boutons verts avec une croix noire pour zoomer, sur le bouton vert avec un tiret pour effectuer un zoom arrière, ou sur les flèches vertes pour les cartes adjacentes.


METAR-TAF: